createdAt,value
2022-10-06T00:01:33.015Z,9.20
2022-10-06T00:03:59.640Z,9.20
2022-10-06T00:06:26.267Z,9.20
2022-10-06T00:08:52.945Z,9.20
2022-10-06T00:11:19.750Z,9.20
2022-10-06T00:13:46.441Z,9.10
2022-10-06T00:16:17.488Z,9.10
2022-10-06T00:18:44.608Z,9.10
2022-10-06T00:21:11.239Z,9.10
2022-10-06T00:23:37.813Z,9.10
2022-10-06T00:26:04.661Z,9.10
2022-10-06T00:28:31.914Z,9.00
2022-10-06T00:31:00.828Z,9.00
2022-10-06T00:33:27.424Z,9.00
2022-10-06T00:35:58.236Z,9.00
2022-10-06T00:38:24.858Z,9.00
2022-10-06T00:40:51.875Z,9.00
2022-10-06T00:43:37.165Z,9.00
2022-10-06T00:46:04.052Z,9.00
2022-10-06T00:48:31.349Z,9.00
2022-10-06T00:50:59.030Z,8.90
2022-10-06T00:53:30.067Z,8.90
2022-10-06T00:55:57.325Z,8.90
2022-10-06T00:58:25.200Z,8.90
2022-10-06T01:00:56.086Z,8.90
2022-10-06T01:03:31.339Z,8.90
2022-10-06T01:05:57.983Z,8.90
2022-10-06T01:08:24.908Z,8.90
2022-10-06T01:10:51.704Z,8.90
2022-10-06T01:13:18.723Z,8.90
2022-10-06T01:15:52.283Z,8.90
2022-10-06T01:18:20.806Z,8.80
2022-10-06T01:20:51.566Z,8.80
2022-10-06T01:23:19.037Z,8.80
2022-10-06T01:25:45.731Z,8.80
2022-10-06T01:28:13.545Z,8.80
2022-10-06T01:30:50.994Z,8.80
2022-10-06T01:33:17.788Z,8.80
2022-10-06T01:35:49.067Z,8.80
2022-10-06T01:38:16.544Z,8.80
2022-10-06T01:40:43.781Z,8.80
2022-10-06T01:43:10.718Z,8.80
2022-10-06T01:45:37.366Z,8.70
2022-10-06T01:48:04.131Z,8.70
2022-10-06T01:50:30.743Z,8.70
2022-10-06T01:52:57.547Z,8.70
2022-10-06T01:55:25.060Z,8.70
2022-10-06T01:57:51.677Z,8.70
2022-10-06T02:00:19.295Z,8.70
2022-10-06T02:02:45.939Z,8.70
2022-10-06T02:05:12.648Z,8.70
2022-10-06T02:07:39.269Z,8.70
2022-10-06T02:10:06.340Z,8.70
2022-10-06T02:12:32.970Z,8.70
2022-10-06T02:14:59.708Z,8.70
2022-10-06T02:17:26.303Z,8.70
2022-10-06T02:19:53.040Z,8.70
2022-10-06T02:22:19.684Z,8.70
2022-10-06T02:24:46.424Z,8.70
2022-10-06T02:27:13.015Z,8.70
2022-10-06T02:29:39.586Z,8.60
2022-10-06T02:32:06.565Z,8.70
2022-10-06T02:34:33.140Z,8.60
2022-10-06T02:36:59.732Z,8.60
2022-10-06T02:39:26.358Z,8.60
2022-10-06T02:41:53.057Z,8.60
2022-10-06T02:44:19.668Z,8.60
2022-10-06T02:46:46.332Z,8.60
2022-10-06T02:49:13.617Z,8.60
2022-10-06T02:51:40.243Z,8.60
2022-10-06T02:54:06.872Z,8.60
2022-10-06T02:56:33.503Z,8.60
2022-10-06T02:59:00.158Z,8.50
2022-10-06T03:01:28.086Z,8.60
2022-10-06T03:03:54.748Z,8.60
2022-10-06T03:06:28.955Z,8.60
2022-10-06T03:08:55.598Z,8.60
2022-10-06T03:11:29.534Z,8.60
2022-10-06T03:13:56.194Z,8.60
2022-10-06T03:16:22.828Z,8.60
2022-10-06T03:18:50.125Z,8.60
2022-10-06T03:21:17.630Z,8.60
2022-10-06T03:23:44.876Z,8.60
2022-10-06T03:26:11.980Z,8.60
2022-10-06T03:28:40.098Z,8.60
2022-10-06T03:31:07.288Z,8.60
2022-10-06T03:33:34.956Z,8.60
2022-10-06T03:36:04.575Z,8.60
2022-10-06T03:38:32.220Z,8.70
2022-10-06T03:41:06.251Z,8.60
2022-10-06T03:43:33.276Z,8.60
2022-10-06T03:46:03.244Z,8.60
2022-10-06T03:48:31.108Z,8.60
2022-10-06T03:50:58.916Z,8.60
2022-10-06T03:53:27.988Z,8.60
2022-10-06T03:56:00.742Z,8.60
2022-10-06T03:58:32.036Z,8.60
2022-10-06T04:01:08.146Z,8.60
2022-10-06T04:03:34.775Z,8.60
2022-10-06T04:06:02.262Z,8.60
2022-10-06T04:08:29.889Z,8.50
2022-10-06T04:11:04.647Z,8.60
2022-10-06T04:13:31.239Z,8.50
2022-10-06T04:15:57.893Z,8.60
2022-10-06T04:18:24.487Z,8.50
2022-10-06T04:20:51.092Z,8.60
2022-10-06T04:23:17.704Z,8.50
2022-10-06T04:25:44.283Z,8.50
2022-10-06T04:28:10.912Z,8.50
2022-10-06T04:30:37.543Z,8.60
2022-10-06T04:33:04.178Z,8.50
2022-10-06T04:35:30.762Z,8.50
2022-10-06T04:37:57.344Z,8.50
2022-10-06T04:40:23.944Z,8.60
2022-10-06T04:42:50.582Z,8.60
2022-10-06T04:45:17.233Z,8.60
2022-10-06T04:47:43.885Z,8.60
2022-10-06T04:50:10.565Z,8.60
2022-10-06T04:52:37.300Z,8.60
2022-10-06T04:55:04.136Z,8.60
2022-10-06T04:57:30.703Z,8.70
2022-10-06T05:00:29.755Z,8.60
2022-10-06T05:02:56.404Z,8.60
2022-10-06T05:05:23.184Z,8.60
2022-10-06T05:07:49.848Z,8.70
2022-10-06T05:10:17.343Z,8.70
2022-10-06T05:12:43.925Z,8.60
2022-10-06T05:15:10.698Z,8.60
2022-10-06T05:17:37.273Z,8.60
2022-10-06T05:20:04.026Z,8.60
2022-10-06T05:22:30.668Z,8.60
2022-10-06T05:24:57.251Z,8.60
2022-10-06T05:27:23.874Z,8.70
2022-10-06T05:29:50.486Z,8.70
2022-10-06T05:32:17.080Z,8.70
2022-10-06T05:34:43.671Z,8.60
2022-10-06T05:37:10.299Z,8.60
2022-10-06T05:39:36.975Z,8.70
2022-10-06T05:42:03.821Z,8.70
2022-10-06T05:44:30.392Z,8.70
2022-10-06T05:46:57.047Z,8.70
2022-10-06T05:49:24.032Z,8.80
2022-10-06T05:51:50.674Z,8.80
2022-10-06T05:54:17.255Z,8.90
2022-10-06T05:56:44.247Z,9.00
2022-10-06T05:59:11.507Z,9.00
2022-10-06T06:01:42.328Z,9.10
2022-10-06T06:04:10.140Z,9.10
2022-10-06T06:06:41.313Z,9.20
2022-10-06T06:09:18.296Z,9.30
2022-10-06T06:11:46.354Z,9.40
2022-10-06T06:14:14.104Z,9.50
2022-10-06T06:16:41.076Z,9.50
2022-10-06T06:19:08.755Z,9.60
2022-10-06T06:21:35.756Z,9.70
2022-10-06T06:24:02.973Z,9.80
2022-10-06T06:26:30.778Z,9.90
2022-10-06T06:29:02.512Z,10.00
2022-10-06T06:31:31.272Z,10.10
2022-10-06T06:33:59.502Z,10.10
2022-10-06T06:36:27.432Z,10.30
2022-10-06T06:38:58.079Z,10.40
2022-10-06T06:41:37.716Z,10.40
2022-10-06T06:44:04.917Z,10.60
2022-10-06T06:49:06.407Z,10.80
2022-10-06T06:51:40.392Z,10.90
2022-10-06T06:54:07.847Z,11.00
2022-10-06T06:56:38.635Z,11.10
2022-10-06T06:59:09.119Z,11.20
2022-10-06T07:01:36.135Z,11.40
2022-10-06T07:04:02.902Z,11.50
2022-10-06T07:06:30.151Z,11.60
2022-10-06T07:08:58.010Z,11.70
2022-10-06T07:11:26.203Z,11.90
2022-10-06T07:13:53.840Z,12.00
2022-10-06T07:16:39.677Z,12.20
2022-10-06T07:19:25.291Z,12.30
2022-10-06T07:22:11.603Z,12.50
2022-10-06T07:24:56.695Z,12.60
2022-10-06T07:27:23.703Z,12.80
2022-10-06T07:29:55.618Z,13.00
2022-10-06T07:32:23.279Z,13.20
2022-10-06T07:34:50.222Z,13.40
2022-10-06T07:37:17.482Z,13.60
2022-10-06T07:39:44.944Z,13.80
2022-10-06T07:42:15.072Z,14.00
2022-10-06T07:44:42.106Z,14.10
2022-10-06T07:47:09.143Z,14.30
2022-10-06T07:49:35.952Z,14.50
2022-10-06T07:52:02.619Z,14.70
2022-10-06T07:54:29.259Z,15.00
2022-10-06T07:56:55.833Z,15.20
2022-10-06T07:59:22.430Z,15.50
2022-10-06T08:01:51.325Z,15.90
2022-10-06T08:04:18.004Z,16.20
2022-10-06T08:06:44.684Z,16.50
2022-10-06T08:09:11.310Z,16.80
2022-10-06T08:11:37.972Z,17.10
2022-10-06T08:14:04.572Z,17.20
2022-10-06T08:16:31.338Z,17.40
2022-10-06T08:18:58.740Z,17.80
2022-10-06T08:21:27.024Z,18.30
2022-10-06T08:23:53.975Z,19.20
2022-10-06T08:26:21.184Z,20.50
2022-10-06T08:28:50.232Z,22.00
2022-10-06T08:31:18.091Z,23.30
2022-10-06T08:33:45.618Z,24.60
2022-10-06T08:36:14.319Z,25.90
2022-10-06T08:38:41.092Z,27.10
2022-10-06T08:41:19.911Z,28.30
2022-10-06T08:43:49.748Z,29.30
2022-10-06T08:46:21.009Z,30.20
2022-10-06T08:48:50.581Z,30.90
2022-10-06T08:51:44.398Z,31.60
2022-10-06T08:54:13.867Z,32.20
2022-10-06T08:56:56.799Z,32.90
2022-10-06T08:59:23.403Z,33.40
2022-10-06T09:01:51.428Z,34.00
2022-10-06T09:04:38.401Z,34.50
2022-10-06T09:07:12.972Z,34.90
2022-10-06T09:09:55.122Z,35.20
2022-10-06T09:12:29.316Z,35.30
2022-10-06T09:15:03.078Z,35.40
2022-10-06T09:17:37.639Z,35.30
2022-10-06T09:20:11.630Z,35.10
2022-10-06T09:22:38.236Z,35.00
2022-10-06T09:25:15.711Z,34.90
2022-10-06T09:27:43.468Z,35.00
2022-10-06T09:30:13.221Z,35.00
2022-10-06T09:32:44.519Z,34.70
2022-10-06T09:35:16.819Z,34.20
2022-10-06T09:37:57.099Z,33.60
2022-10-06T09:40:49.067Z,32.70
2022-10-06T09:43:19.121Z,31.50
2022-10-06T09:45:45.751Z,29.90
2022-10-06T09:48:13.568Z,28.50
2022-10-06T09:50:40.784Z,27.30
2022-10-06T09:53:12.139Z,26.40
2022-10-06T09:55:38.843Z,25.50
2022-10-06T09:58:15.843Z,24.60
2022-10-06T10:00:46.853Z,23.90
2022-10-06T10:03:13.646Z,23.40
2022-10-06T10:05:46.473Z,23.10
2022-10-06T10:08:13.043Z,22.70
2022-10-06T10:10:40.070Z,22.40
2022-10-06T10:13:26.191Z,22.10
2022-10-06T10:15:53.633Z,22.00
2022-10-06T10:18:26.830Z,21.80
2022-10-06T10:20:55.777Z,21.60
2022-10-06T10:23:41.115Z,21.40
2022-10-06T10:26:20.964Z,21.20
2022-10-06T10:29:06.108Z,21.10
2022-10-06T10:31:35.881Z,20.90
2022-10-06T10:34:12.887Z,20.90
2022-10-06T10:36:53.581Z,20.80
2022-10-06T10:39:31.766Z,20.80
2022-10-06T10:42:02.500Z,21.00
2022-10-06T10:44:37.738Z,21.50
2022-10-06T10:47:10.798Z,22.10
2022-10-06T10:49:39.625Z,22.60
2022-10-06T10:52:12.149Z,23.10
2022-10-06T10:54:38.781Z,23.00
2022-10-06T10:57:11.342Z,22.90
2022-10-06T10:59:47.062Z,23.10
2022-10-06T11:02:18.387Z,23.40
2022-10-06T11:04:49.764Z,23.70
2022-10-06T11:07:43.028Z,24.00
2022-10-06T11:10:21.088Z,24.20
2022-10-06T11:12:57.063Z,24.00
2022-10-06T11:15:26.732Z,23.60
2022-10-06T11:17:56.748Z,23.30
2022-10-06T11:20:42.692Z,23.10
2022-10-06T11:23:28.709Z,22.90
2022-10-06T11:26:09.849Z,22.80
2022-10-06T11:28:42.187Z,22.70
2022-10-06T11:31:09.125Z,22.70
2022-10-06T11:33:35.868Z,22.60
2022-10-06T11:36:03.606Z,22.50
2022-10-06T11:38:34.892Z,22.40
2022-10-06T11:41:02.697Z,22.20
2022-10-06T11:43:35.648Z,22.00
2022-10-06T11:46:26.580Z,21.70
2022-10-06T11:49:14.908Z,21.50
2022-10-06T11:51:41.476Z,21.40
2022-10-06T11:54:28.018Z,21.20
2022-10-06T11:56:54.610Z,21.10
2022-10-06T11:59:25.962Z,21.00
2022-10-06T12:01:53.531Z,20.90
2022-10-06T12:04:24.513Z,20.80
2022-10-06T12:06:52.404Z,20.70
2022-10-06T12:09:26.161Z,20.60
2022-10-06T12:11:53.896Z,20.50
2022-10-06T12:17:19.015Z,20.20
2022-10-06T12:19:49.045Z,20.10
2022-10-06T12:22:31.379Z,20.00
2022-10-06T12:25:10.524Z,19.90
2022-10-06T12:27:37.253Z,19.80
2022-10-06T12:30:22.666Z,19.70
2022-10-06T12:32:59.257Z,19.70
2022-10-06T12:35:31.345Z,19.60
2022-10-06T12:38:02.647Z,19.60
2022-10-06T12:40:38.465Z,19.50
2022-10-06T12:43:23.365Z,19.50
2022-10-06T12:45:56.514Z,19.50
2022-10-06T12:48:26.830Z,19.50
2022-10-06T12:50:58.069Z,19.50
2022-10-06T12:53:27.976Z,19.50
2022-10-06T12:55:58.301Z,19.50
2022-10-06T12:58:29.108Z,19.60
2022-10-06T13:01:04.705Z,19.70
2022-10-06T13:03:31.380Z,19.80
2022-10-06T13:06:01.069Z,19.80
2022-10-06T13:08:29.619Z,19.80
2022-10-06T13:11:15.293Z,19.80
2022-10-06T13:13:49.671Z,19.80
2022-10-06T13:16:19.446Z,19.80
2022-10-06T13:18:46.899Z,19.80
2022-10-06T13:21:17.072Z,19.80
2022-10-06T13:23:45.401Z,19.70
2022-10-06T13:26:29.454Z,19.60
2022-10-06T13:28:57.238Z,19.50
2022-10-06T13:31:31.485Z,19.50
2022-10-06T13:34:05.700Z,19.40
2022-10-06T13:36:37.205Z,19.40
2022-10-06T13:39:11.829Z,19.30
2022-10-06T13:41:43.166Z,19.30
2022-10-06T13:44:14.320Z,19.30
2022-10-06T13:47:01.730Z,19.30
2022-10-06T13:49:34.227Z,19.30
2022-10-06T13:52:03.023Z,19.30
2022-10-06T13:54:32.604Z,19.30
2022-10-06T13:56:59.255Z,19.30
2022-10-06T13:59:37.124Z,19.30
2022-10-06T14:02:22.314Z,19.40
2022-10-06T14:05:07.735Z,19.40
2022-10-06T14:07:34.415Z,19.50
2022-10-06T14:10:01.033Z,19.50
2022-10-06T14:12:27.635Z,19.60
2022-10-06T14:14:54.267Z,19.60
2022-10-06T14:17:22.560Z,19.70
2022-10-06T14:19:49.301Z,19.80
2022-10-06T14:22:37.469Z,19.90
2022-10-06T14:25:11.309Z,19.90
2022-10-06T14:27:37.953Z,20.00
2022-10-06T14:30:04.779Z,20.00
2022-10-06T14:32:31.347Z,19.90
2022-10-06T14:34:57.988Z,19.90
2022-10-06T14:37:24.592Z,19.90
2022-10-06T14:39:52.609Z,19.90
2022-10-06T14:42:22.820Z,19.80
2022-10-06T14:44:49.468Z,19.80
2022-10-06T14:47:16.579Z,19.70
2022-10-06T14:49:44.904Z,19.60
2022-10-06T14:52:12.055Z,19.60
2022-10-06T14:54:39.103Z,19.50
2022-10-06T14:57:05.791Z,19.40
2022-10-06T14:59:32.676Z,19.30
2022-10-06T15:01:59.336Z,19.30
2022-10-06T15:04:27.693Z,19.30
2022-10-06T15:07:13.183Z,19.30
2022-10-06T15:09:39.767Z,19.30
2022-10-06T15:12:06.392Z,19.30
2022-10-06T15:14:34.956Z,19.30
2022-10-06T15:17:01.590Z,19.30
2022-10-06T15:19:28.575Z,19.20
2022-10-06T15:21:55.208Z,19.20
2022-10-06T15:24:21.848Z,19.10
2022-10-06T15:27:07.373Z,19.00
2022-10-06T15:29:37.359Z,18.90
2022-10-06T15:32:06.048Z,18.90
2022-10-06T15:34:34.310Z,18.80
2022-10-06T15:37:01.813Z,18.70
2022-10-06T15:39:29.909Z,18.60
2022-10-06T15:41:56.933Z,18.60
2022-10-06T15:44:23.531Z,18.50
2022-10-06T15:46:51.505Z,18.40
2022-10-06T15:49:18.234Z,18.40
2022-10-06T15:51:48.974Z,18.30
2022-10-06T15:54:37.547Z,18.20
2022-10-06T15:57:05.646Z,18.20
2022-10-06T15:59:33.975Z,18.10
2022-10-06T16:02:07.266Z,18.00
2022-10-06T16:04:37.904Z,18.00
2022-10-06T16:07:12.896Z,17.90
2022-10-06T16:09:43.343Z,17.90
2022-10-06T16:12:11.310Z,17.90
2022-10-06T16:14:37.960Z,17.80
2022-10-06T16:17:05.943Z,17.70
2022-10-06T16:19:33.388Z,17.70
2022-10-06T16:22:00.694Z,17.60
2022-10-06T16:24:27.342Z,17.50
2022-10-06T16:26:54.303Z,17.40
2022-10-06T16:29:21.715Z,17.30
2022-10-06T16:31:48.457Z,17.30
2022-10-06T16:34:15.519Z,17.20
2022-10-06T16:36:42.488Z,17.10
2022-10-06T16:39:13.360Z,17.00
2022-10-06T16:41:39.968Z,16.90
2022-10-06T16:44:06.645Z,16.80
2022-10-06T16:46:33.511Z,16.70
2022-10-06T16:49:01.277Z,16.60
2022-10-06T16:51:32.078Z,16.50
2022-10-06T16:53:59.749Z,16.40
2022-10-06T16:56:31.370Z,16.20
2022-10-06T16:58:59.045Z,16.10
2022-10-06T17:01:27.384Z,16.00
2022-10-06T17:03:58.424Z,15.90
2022-10-06T17:06:25.374Z,15.80
2022-10-06T17:08:52.948Z,15.70
2022-10-06T17:11:25.067Z,15.50
2022-10-06T17:16:21.380Z,15.30
2022-10-06T17:18:52.518Z,15.20
2022-10-06T17:21:43.186Z,15.10
2022-10-06T17:24:05.896Z,15.00
2022-10-06T17:26:33.570Z,14.80
2022-10-06T17:29:01.332Z,14.70
2022-10-06T17:31:35.290Z,14.60
2022-10-06T17:34:02.383Z,14.50
2022-10-06T17:36:29.007Z,14.50
2022-10-06T17:39:01.613Z,14.40
2022-10-06T17:41:32.111Z,14.40
2022-10-06T17:44:01.215Z,14.30
2022-10-06T17:46:27.810Z,14.20
2022-10-06T17:48:55.029Z,14.10
2022-10-06T17:51:22.674Z,14.10
2022-10-06T17:53:50.467Z,14.10
2022-10-06T17:56:18.408Z,14.10
2022-10-06T17:58:51.014Z,14.10
2022-10-06T18:01:17.692Z,14.10
2022-10-06T18:03:44.953Z,14.00
2022-10-06T18:06:11.907Z,14.00
2022-10-06T18:08:38.968Z,14.00
2022-10-06T18:11:24.521Z,14.00
2022-10-06T18:13:51.208Z,14.00
2022-10-06T18:16:25.897Z,13.90
2022-10-06T18:18:54.323Z,13.90
2022-10-06T18:21:22.574Z,14.00
2022-10-06T18:23:49.214Z,13.90
2022-10-06T18:26:19.778Z,13.90
2022-10-06T18:28:48.663Z,13.80
2022-10-06T18:31:16.343Z,13.80
2022-10-06T18:36:30.910Z,13.60
2022-10-06T18:38:57.923Z,13.60
2022-10-06T18:41:27.242Z,13.50
2022-10-06T18:43:54.514Z,13.40
2022-10-06T18:46:40.008Z,13.30
2022-10-06T18:49:10.561Z,13.30
2022-10-06T18:51:41.959Z,13.20
2022-10-06T18:54:10.852Z,13.20
2022-10-06T18:56:38.118Z,13.10
2022-10-06T18:59:10.261Z,13.10
2022-10-06T19:01:39.627Z,13.10
2022-10-06T19:04:09.711Z,13.10
2022-10-06T19:06:37.415Z,13.00
2022-10-06T19:09:04.972Z,13.00
2022-10-06T19:11:51.346Z,13.00
2022-10-06T19:14:21.897Z,13.00
2022-10-06T19:16:51.066Z,13.00
2022-10-06T19:19:19.285Z,13.00
2022-10-06T19:21:46.942Z,13.00
2022-10-06T19:24:15.173Z,13.00
2022-10-06T19:26:45.765Z,13.00
2022-10-06T19:29:13.764Z,13.00
2022-10-06T19:31:42.720Z,13.00
2022-10-06T19:34:11.727Z,13.00
2022-10-06T19:36:39.622Z,13.00
2022-10-06T19:39:07.935Z,12.90
2022-10-06T19:41:53.526Z,12.90
2022-10-06T19:44:20.234Z,12.90
2022-10-06T19:46:46.950Z,13.00
2022-10-06T19:49:13.687Z,13.00
2022-10-06T19:51:41.272Z,13.00
2022-10-06T19:54:12.292Z,13.00
2022-10-06T19:56:41.314Z,13.00
2022-10-06T19:59:08.598Z,13.00
2022-10-06T20:01:35.257Z,13.00
2022-10-06T20:04:02.415Z,13.00
2022-10-06T20:06:30.516Z,13.00
2022-10-06T20:09:06.448Z,12.90
2022-10-06T20:11:35.240Z,12.90
2022-10-06T20:14:02.470Z,12.80
2022-10-06T20:16:30.677Z,12.90
2022-10-06T20:18:57.360Z,12.90
2022-10-06T20:21:24.806Z,12.90
2022-10-06T20:23:53.025Z,12.80
2022-10-06T20:26:21.200Z,12.80
2022-10-06T20:28:48.444Z,12.70
2022-10-06T20:31:26.281Z,12.70
2022-10-06T20:33:53.911Z,12.70
2022-10-06T20:36:20.544Z,12.60
2022-10-06T20:39:05.999Z,12.60
2022-10-06T20:41:32.639Z,12.60
2022-10-06T20:44:00.350Z,12.60
2022-10-06T20:46:31.570Z,12.60
2022-10-06T20:49:04.515Z,12.60
2022-10-06T20:51:32.342Z,12.60
2022-10-06T20:53:59.603Z,12.60
2022-10-06T20:56:26.479Z,12.60
2022-10-06T20:58:53.620Z,12.60
2022-10-06T21:01:20.629Z,12.60
2022-10-06T21:03:49.274Z,12.60
2022-10-06T21:06:16.730Z,12.60
2022-10-06T21:08:44.693Z,12.60
2022-10-06T21:11:12.764Z,12.60
2022-10-06T21:13:40.175Z,12.60
2022-10-06T21:16:07.521Z,12.60
2022-10-06T21:18:34.549Z,12.60
2022-10-06T21:21:07.796Z,12.60
2022-10-06T21:23:39.009Z,12.60
2022-10-06T21:26:09.138Z,12.70
2022-10-06T21:28:35.836Z,12.60
2022-10-06T21:31:03.214Z,12.70
2022-10-06T21:33:30.261Z,12.70
2022-10-06T21:36:00.706Z,12.70
2022-10-06T21:38:27.849Z,12.80
2022-10-06T21:40:56.873Z,12.80
2022-10-06T21:43:24.802Z,12.80
2022-10-06T21:46:05.033Z,12.90
2022-10-06T21:48:37.495Z,12.90
2022-10-06T21:51:04.299Z,12.90
2022-10-06T21:53:31.842Z,12.90
2022-10-06T21:55:58.409Z,13.00
2022-10-06T21:58:25.251Z,13.10
2022-10-06T22:00:54.823Z,13.10
2022-10-06T22:03:24.558Z,13.10
2022-10-06T22:05:51.124Z,13.10
2022-10-06T22:08:17.709Z,13.20
2022-10-06T22:10:45.209Z,13.20
2022-10-06T22:13:11.878Z,13.20
2022-10-06T22:15:38.485Z,13.30
2022-10-06T22:18:05.153Z,13.30
2022-10-06T22:20:34.273Z,13.30
2022-10-06T22:23:04.761Z,13.30
2022-10-06T22:25:31.659Z,13.40
2022-10-06T22:27:58.301Z,13.40
2022-10-06T22:30:24.925Z,13.40
2022-10-06T22:32:51.502Z,13.40
2022-10-06T22:35:18.059Z,13.40
2022-10-06T22:37:44.941Z,13.40
2022-10-06T22:40:11.729Z,13.50
2022-10-06T22:42:38.965Z,13.50
2022-10-06T22:45:05.850Z,13.50
2022-10-06T22:47:32.427Z,13.50
2022-10-06T22:49:58.997Z,13.50
2022-10-06T22:52:25.565Z,13.50
2022-10-06T22:54:52.145Z,13.50
2022-10-06T22:57:18.745Z,13.50
2022-10-06T22:59:45.353Z,13.50
2022-10-06T23:02:11.926Z,13.50
2022-10-06T23:04:38.502Z,13.50
2022-10-06T23:07:05.204Z,13.60
2022-10-06T23:09:31.795Z,13.60
2022-10-06T23:11:58.359Z,13.60
2022-10-06T23:14:24.961Z,13.60
2022-10-06T23:16:51.572Z,13.60
2022-10-06T23:19:18.233Z,13.60
2022-10-06T23:21:44.835Z,13.60
2022-10-06T23:24:11.460Z,13.70
2022-10-06T23:26:38.082Z,13.70
2022-10-06T23:29:04.749Z,13.70
2022-10-06T23:31:31.422Z,13.70
2022-10-06T23:33:58.184Z,13.70
2022-10-06T23:36:24.855Z,13.70
2022-10-06T23:38:51.474Z,13.70
2022-10-06T23:41:18.162Z,13.70
2022-10-06T23:43:44.807Z,13.70
2022-10-06T23:46:11.828Z,13.70
2022-10-06T23:48:38.523Z,13.70
2022-10-06T23:51:07.038Z,13.70
2022-10-06T23:53:34.009Z,13.70
2022-10-06T23:56:00.863Z,13.70
2022-10-06T23:58:27.539Z,13.70
